Time;durP1;ratioP1;P1;durP2;ratioP2;P2;SDS_P1;SDS_P2;PMS_P1;PMS_P2;Temp;Humidity;BMP_temperature;BMP_pressure;BME280_temperature;BME280_humidity;BME280_pressure;Samples;Min_cycle;Max_cycle;Signal;HPM_P1;HPM_P2
2022/01/01 00:04:08;;;;;;;12.93;6.68;;;13.90;99.90;;;;;;6746073;87;20223;-75
2022/01/01 00:14:08;;;;;;;9.90;5.05;;;13.90;99.90;;;;;;6750438;87;20321;-75
2022/01/01 00:24:10;;;;;;;13.32;7.62;;;13.90;99.90;;;;;;6748159;87;20598;-75
2022/01/01 00:34:10;;;;;;;13.93;7.80;;;13.80;99.90;;;;;;6745740;87;20236;-76
2022/01/01 00:44:11;;;;;;;14.32;7.57;;;13.70;99.90;;;;;;6742338;88;20268;-76
2022/01/01 00:54:11;;;;;;;15.07;7.45;;;13.80;99.90;;;;;;6733519;88;20241;-76
2022/01/01 01:04:12;;;;;;;13.48;7.07;;;13.80;99.90;;;;;;6742008;88;20238;-76
2022/01/01 01:14:22;;;;;;;11.07;6.00;;;13.80;99.90;;;;;;6730216;88;20289;-75
2022/01/01 01:24:24;;;;;;;11.95;6.07;;;13.90;99.90;;;;;;6743179;88;20224;-75
2022/01/01 01:34:24;;;;;;;12.55;6.62;;;13.90;99.90;;;;;;6737027;88;20616;-76
2022/01/01 01:44:35;;;;;;;7.78;3.83;;;13.70;99.90;;;;;;6724825;88;20206;-76
2022/01/01 01:54:36;;;;;;;12.13;3.72;;;13.90;99.90;;;;;;6731364;88;20234;-76
2022/01/01 02:04:37;;;;;;;9.75;3.92;;;13.80;99.90;;;;;;6733482;88;20192;-75
2022/01/01 02:15:08;;;;;;;9.57;3.50;;;13.80;99.90;;;;;;6731856;88;20595;-75
2022/01/01 02:25:08;;;;;;;10.82;3.78;;;13.70;99.90;;;;;;6729120;88;20831;-75
2022/01/01 02:35:11;;;;;;;9.38;4.18;;;13.80;99.90;;;;;;6731985;88;20299;-76
2022/01/01 02:45:13;;;;;;;8.50;4.53;;;13.60;99.90;;;;;;6737611;88;20249;-75
2022/01/01 02:55:14;;;;;;;14.13;4.28;;;13.60;99.90;;;;;;6734670;88;20338;-75
2022/01/01 03:05:14;;;;;;;9.52;3.80;;;13.60;99.90;;;;;;6732721;88;20201;-75
2022/01/01 03:15:15;;;;;;;11.00;3.58;;;13.50;99.90;;;;;;6738819;88;20751;-75
2022/01/01 03:25:15;;;;;;;8.23;2.80;;;13.60;99.90;;;;;;6737708;88;20632;-75
2022/01/01 03:35:16;;;;;;;8.02;2.70;;;13.60;99.90;;;;;;6735153;88;20331;-75
2022/01/01 03:45:16;;;;;;;8.43;2.00;;;13.60;99.90;;;;;;6716228;88;20697;-75
2022/01/01 03:55:17;;;;;;;6.62;2.00;;;13.80;99.90;;;;;;6720948;88;20263;-75
2022/01/01 04:05:18;;;;;;;6.97;1.70;;;13.80;99.90;;;;;;6728740;88;20324;-75
2022/01/01 04:15:18;;;;;;;8.88;2.50;;;13.80;99.90;;;;;;6725219;88;20190;-75
2022/01/01 04:25:20;;;;;;;6.85;2.00;;;13.80;99.90;;;;;;6720185;88;20193;-75
2022/01/01 04:35:21;;;;;;;8.48;2.00;;;13.80;99.90;;;;;;6718972;88;20193;-76
2022/01/01 04:45:21;;;;;;;7.63;1.90;;;13.70;99.90;;;;;;6732211;88;20185;-75
2022/01/01 04:55:23;;;;;;;5.68;1.70;;;13.80;99.90;;;;;;6732654;88;20637;-76
2022/01/01 05:05:24;;;;;;;6.60;1.77;;;13.70;99.90;;;;;;6736716;88;20197;-75
2022/01/01 05:15:25;;;;;;;5.40;1.60;;;13.70;99.90;;;;;;6732312;88;20715;-75
2022/01/01 05:25:25;;;;;;;6.63;1.80;;;13.60;99.90;;;;;;6731369;87;20494;-75
2022/01/01 05:35:26;;;;;;;6.50;1.62;;;13.60;99.90;;;;;;6731595;88;20577;-75
2022/01/01 05:45:26;;;;;;;9.57;1.95;;;13.60;99.90;;;;;;6728156;88;20272;-75
2022/01/01 05:55:27;;;;;;;5.33;1.57;;;13.70;99.90;;;;;;6731650;88;20255;-76
2022/01/01 06:05:30;;;;;;;9.32;1.80;;;13.60;99.90;;;;;;6733999;88;20540;-76
2022/01/01 06:15:31;;;;;;;8.73;1.70;;;13.70;99.90;;;;;;6731602;88;20501;-75
2022/01/01 06:25:32;;;;;;;6.40;1.75;;;13.60;99.90;;;;;;6730832;88;20328;-75
2022/01/01 06:35:33;;;;;;;5.93;1.80;;;13.50;99.90;;;;;;6734583;88;20668;-75
2022/01/01 06:45:34;;;;;;;8.60;1.60;;;13.40;99.90;;;;;;6729540;88;20287;-76
2022/01/01 06:55:34;;;;;;;7.28;1.60;;;13.50;99.90;;;;;;6732318;88;20189;-76
2022/01/01 07:05:35;;;;;;;6.25;1.52;;;13.40;99.90;;;;;;6737878;88;20170;-75
2022/01/01 07:15:36;;;;;;;6.65;1.70;;;13.30;99.90;;;;;;6741855;87;20184;-76
2022/01/01 07:25:37;;;;;;;8.13;1.70;;;13.30;99.90;;;;;;6735489;88;20602;-76
2022/01/01 07:35:37;;;;;;;5.75;1.80;;;13.30;99.90;;;;;;6730714;88;20200;-76
2022/01/01 07:45:39;;;;;;;6.45;1.60;;;13.40;99.90;;;;;;6732345;88;20172;-75
2022/01/01 07:55:39;;;;;;;5.18;1.62;;;13.50;99.90;;;;;;6737835;88;20192;-76
2022/01/01 08:05:40;;;;;;;6.50;1.73;;;13.40;99.90;;;;;;6738171;88;20197;-75
2022/01/01 08:15:40;;;;;;;5.67;2.50;;;13.30;99.90;;;;;;6733661;88;20211;-75
2022/01/01 08:25:41;;;;;;;6.68;2.30;;;13.20;99.90;;;;;;6733979;88;20632;-75
2022/01/01 08:35:42;;;;;;;5.57;2.55;;;13.20;99.90;;;;;;6739174;88;20197;-75
2022/01/01 08:45:42;;;;;;;5.07;1.98;;;13.20;99.90;;;;;;6734529;88;20608;-75
2022/01/01 08:55:43;;;;;;;8.60;2.33;;;13.30;99.90;;;;;;6736990;87;20208;-75
2022/01/01 09:05:44;;;;;;;4.22;1.87;;;13.40;99.90;;;;;;6733721;88;20190;-76
2022/01/01 09:15:44;;;;;;;5.87;1.80;;;13.50;99.90;;;;;;6740706;88;20202;-75
2022/01/01 09:25:45;;;;;;;4.90;1.40;;;13.50;99.90;;;;;;6731645;88;20189;-75
2022/01/01 09:35:45;;;;;;;6.57;2.30;;;13.60;99.90;;;;;;6729437;88;20201;-76
2022/01/01 09:45:49;;;;;;;5.27;1.60;;;13.60;99.90;;;;;;6727766;88;20242;-74
2022/01/01 09:55:50;;;;;;;3.72;1.60;;;13.70;99.90;;;;;;6729108;88;20211;-74
2022/01/01 10:06:08;;;;;;;7.82;3.05;;;13.80;99.90;;;;;;6741302;88;20648;-75
2022/01/01 10:16:10;;;;;;;5.80;2.00;;;14.00;99.90;;;;;;6743450;88;21003;-75
2022/01/01 10:36:31;;;;;;;4.85;1.55;;;14.10;99.90;;;;;;6735599;88;20181;-75
2022/01/01 10:46:36;;;;;;;4.80;1.50;;;14.60;99.90;;;;;;6739123;88;20217;-73
2022/01/01 10:56:38;;;;;;;4.62;1.80;;;14.80;99.90;;;;;;6731755;88;20214;-75
2022/01/01 11:06:41;;;;;;;3.28;1.70;;;14.90;99.90;;;;;;6736988;88;20250;-76
2022/01/01 11:16:42;;;;;;;4.35;1.90;;;15.00;99.90;;;;;;6735750;87;20216;-76
2022/01/01 11:26:44;;;;;;;4.82;1.90;;;15.30;99.90;;;;;;6732497;88;20936;-77
2022/01/01 11:36:46;;;;;;;6.90;2.28;;;15.30;99.90;;;;;;6732459;88;20200;-74
2022/01/01 11:46:58;;;;;;;5.82;2.20;;;15.10;99.90;;;;;;6734902;88;20185;-74
2022/01/01 11:57:20;;;;;;;5.12;2.40;;;14.90;99.90;;;;;;6732872;88;20790;-74
2022/01/01 12:07:20;;;;;;;7.70;2.60;;;14.80;99.90;;;;;;6744703;88;20233;-75
2022/01/01 12:17:22;;;;;;;4.18;2.30;;;15.40;99.90;;;;;;6740676;87;20860;-75
2022/01/01 12:27:23;;;;;;;3.60;2.00;;;15.20;99.90;;;;;;6752255;88;20843;-77
2022/01/01 12:37:35;;;;;;;5.32;2.50;;;15.60;99.90;;;;;;6757991;88;20225;-77
2022/01/01 12:47:37;;;;;;;4.37;2.20;;;15.70;99.90;;;;;;6739550;88;20222;-77
2022/01/01 12:57:38;;;;;;;4.10;2.00;;;15.80;99.90;;;;;;6728681;88;20239;-76
2022/01/01 13:07:40;;;;;;;5.50;2.90;;;15.70;99.90;;;;;;6727810;88;20705;-76
2022/01/01 13:17:46;;;;;;;6.62;2.80;;;17.00;99.90;;;;;;6740029;88;20437;-75
2022/01/01 13:27:47;;;;;;;5.93;2.87;;;17.20;99.90;;;;;;6740315;88;20310;-76
2022/01/01 13:37:49;;;;;;;4.57;2.10;;;16.20;99.90;;;;;;6741368;88;20189;-76
2022/01/01 13:47:50;;;;;;;3.65;2.20;;;15.90;99.90;;;;;;6746331;88;20946;-74
2022/01/01 13:57:51;;;;;;;4.53;2.30;;;15.50;99.90;;;;;;6733551;88;20198;-76
2022/01/01 14:08:12;;;;;;;4.95;2.08;;;15.60;99.90;;;;;;6731614;88;20192;-75
2022/01/01 14:18:13;;;;;;;5.93;2.50;;;15.10;99.90;;;;;;6732459;88;20196;-76
2022/01/01 14:28:13;;;;;;;6.25;3.05;;;14.80;99.90;;;;;;6741428;87;20212;-76
2022/01/01 14:38:14;;;;;;;6.12;3.08;;;14.40;99.90;;;;;;6735548;88;20277;-76
2022/01/01 14:48:22;;;;;;;7.28;3.25;;;14.00;99.90;;;;;;6734747;87;20180;-76
2022/01/01 14:58:31;;;;;;;6.78;4.03;;;13.70;99.90;;;;;;6735048;88;20823;-76
2022/01/01 15:08:33;;;;;;;5.32;3.40;;;13.50;99.90;;;;;;6732628;88;20700;-76
2022/01/01 15:18:35;;;;;;;5.85;3.72;;;13.30;99.90;;;;;;6735060;88;20667;-76
2022/01/01 15:28:37;;;;;;;9.10;3.87;;;13.10;99.90;;;;;;6729089;88;20184;-76
2022/01/01 15:38:48;;;;;;;6.75;3.80;;;12.80;99.90;;;;;;6731661;88;20204;-76
2022/01/01 15:48:50;;;;;;;7.20;3.95;;;12.70;99.90;;;;;;6730485;88;20206;-77
2022/01/01 15:59:05;;;;;;;8.50;4.32;;;12.60;99.90;;;;;;6730769;88;20716;-76
2022/01/01 16:09:07;;;;;;;9.30;3.80;;;12.50;99.90;;;;;;6732820;88;20185;-76
2022/01/01 16:19:09;;;;;;;7.22;4.00;;;12.40;99.90;;;;;;6737173;88;20181;-76
2022/01/01 16:29:10;;;;;;;6.95;3.92;;;12.30;99.90;;;;;;6739884;88;20193;-76
2022/01/01 16:39:11;;;;;;;9.20;4.95;;;12.10;99.90;;;;;;6741690;88;20330;-75
2022/01/01 16:49:15;;;;;;;8.23;4.25;;;12.10;99.90;;;;;;6742031;88;20180;-76
2022/01/01 16:59:18;;;;;;;7.78;3.75;;;11.90;99.90;;;;;;6743089;88;20189;-76
2022/01/01 17:09:24;;;;;;;7.32;3.40;;;11.80;99.90;;;;;;6744622;87;20227;-76
2022/01/01 17:19:46;;;;;;;7.60;3.60;;;11.80;99.90;;;;;;6739936;88;20185;-76
2022/01/01 17:29:47;;;;;;;7.85;3.33;;;11.90;99.90;;;;;;6743670;87;20309;-78
2022/01/01 17:39:55;;;;;;;7.97;3.58;;;11.70;99.90;;;;;;6737692;87;21003;-76
2022/01/01 17:50:08;;;;;;;5.55;2.90;;;11.70;99.90;;;;;;6734994;88;20685;-75
2022/01/01 18:00:11;;;;;;;7.00;3.72;;;11.60;99.90;;;;;;6736358;87;20243;-75
2022/01/01 18:10:13;;;;;;;7.25;3.37;;;11.50;99.90;;;;;;6738460;87;20652;-75
2022/01/01 18:20:20;;;;;;;7.70;3.20;;;11.60;99.90;;;;;;6739277;88;20299;-74
2022/01/01 18:30:21;;;;;;;7.12;3.40;;;11.60;99.90;;;;;;6729513;88;20998;-74
2022/01/01 18:40:23;;;;;;;8.57;3.30;;;11.50;99.90;;;;;;6732871;88;20205;-75
2022/01/01 18:50:24;;;;;;;6.05;3.10;;;11.40;99.90;;;;;;6726192;88;20319;-73
2022/01/01 19:00:25;;;;;;;6.28;3.05;;;11.40;99.90;;;;;;6726812;88;20825;-74
2022/01/01 19:10:44;;;;;;;5.93;3.22;;;11.30;99.90;;;;;;6743510;87;20212;-76
2022/01/01 19:20:49;;;;;;;9.20;3.50;;;11.40;99.90;;;;;;6737280;88;20204;-75
2022/01/01 19:30:49;;;;;;;7.55;3.35;;;11.30;99.90;;;;;;6741968;87;20203;-75
2022/01/01 19:41:24;;;;;;;7.45;3.53;;;11.30;99.90;;;;;;6739124;88;20563;-76
2022/01/01 19:51:26;;;;;;;5.55;2.85;;;11.20;99.90;;;;;;6738891;88;20249;-75
2022/01/01 20:01:27;;;;;;;5.18;3.00;;;11.10;99.90;;;;;;6742963;87;20185;-75
2022/01/01 20:11:28;;;;;;;8.15;3.20;;;11.00;99.90;;;;;;6740192;88;20266;-75
2022/01/01 20:21:28;;;;;;;8.43;3.20;;;10.90;99.90;;;;;;6741535;88;20216;-75
2022/01/01 20:31:29;;;;;;;7.55;3.00;;;10.90;99.90;;;;;;6744551;88;20185;-76
2022/01/01 20:41:30;;;;;;;7.97;3.23;;;10.80;99.90;;;;;;6734315;88;20203;-76
2022/01/01 20:51:32;;;;;;;7.00;3.33;;;10.80;99.90;;;;;;6745784;88;20519;-76
2022/01/01 21:01:33;;;;;;;6.45;3.40;;;10.70;99.90;;;;;;6751873;88;20503;-76
2022/01/01 21:11:37;;;;;;;9.77;3.70;;;10.60;99.90;;;;;;6743661;87;20295;-76
2022/01/01 21:21:37;;;;;;;9.93;4.15;;;10.60;99.90;;;;;;6741035;88;20196;-76
2022/01/01 21:31:38;;;;;;;9.43;4.55;;;10.60;99.90;;;;;;6744074;88;20215;-76
2022/01/01 21:41:39;;;;;;;9.57;4.55;;;10.60;99.90;;;;;;6751772;87;20223;-76
2022/01/01 21:51:40;;;;;;;10.38;4.62;;;10.60;99.90;;;;;;6739148;87;20197;-74
2022/01/01 22:01:40;;;;;;;8.52;4.50;;;10.60;99.90;;;;;;6735698;88;20213;-75
2022/01/01 22:11:41;;;;;;;10.23;5.32;;;10.60;99.90;;;;;;6740189;88;20753;-73
2022/01/01 22:21:42;;;;;;;8.93;5.18;;;10.60;99.90;;;;;;6721650;88;20248;-75
2022/01/01 22:31:42;;;;;;;12.20;5.47;;;10.50;99.90;;;;;;6725472;88;20193;-74
2022/01/01 22:41:43;;;;;;;9.32;5.65;;;10.50;99.90;;;;;;6723792;88;20531;-74
2022/01/01 22:51:43;;;;;;;10.75;6.07;;;10.40;99.90;;;;;;6729782;88;20207;-76
2022/01/01 23:01:44;;;;;;;9.83;5.73;;;10.40;99.90;;;;;;6734421;88;20263;-76
2022/01/01 23:11:45;;;;;;;8.27;5.37;;;10.50;99.90;;;;;;6746828;88;21328;-76
2022/01/01 23:21:48;;;;;;;9.70;4.93;;;10.50;99.90;;;;;;6735862;88;20555;-76
2022/01/01 23:31:49;;;;;;;9.55;5.15;;;10.50;99.90;;;;;;6737744;88;20271;-76
2022/01/01 23:41:50;;;;;;;8.23;4.72;;;10.50;99.90;;;;;;6741644;88;20243;-75
2022/01/01 23:52:09;;;;;;;10.52;5.18;;;10.50;99.90;;;;;;6734824;88;20212;-74
